Time;durP1;ratioP1;P1;durP2;ratioP2;P2;SDS_P1;SDS_P2;PMS_P1;PMS_P2;Temp;Humidity;BMP_temperature;BMP_pressure;BME280_temperature;BME280_humidity;BME280_pressure;Samples;Min_cycle;Max_cycle;Signal;HPM_P1;HPM_P2
2022/03/01 00:01:36;;;;;;;;;40.75;35.75;;;;;10.55;41.92;102281.88;4944150;28;45468;-70
2022/03/01 00:04:01;;;;;;;;;35.50;34.00;;;;;10.53;42.04;102279.22;4944094;28;45438;-70
2022/03/01 00:06:26;;;;;;;;;40.50;34.25;;;;;10.56;42.00;102275.66;4948331;28;45131;-70
2022/03/01 00:08:53;;;;;;;;;34.25;32.75;;;;;10.55;41.84;102274.75;4946718;28;45171;-70
2022/03/01 00:11:20;;;;;;;;;37.75;34.00;;;;;10.51;42.24;102274.81;4944111;28;45332;-70
2022/03/01 00:13:45;;;;;;;;;39.50;36.50;;;;;10.53;42.12;102283.69;4943830;28;46509;-70
2022/03/01 00:16:11;;;;;;;;;44.50;36.75;;;;;10.50;42.14;102271.22;4940987;28;45317;-70
2022/03/01 00:18:36;;;;;;;;;38.50;34.00;;;;;10.51;42.48;102286.34;4943473;28;45301;-70
2022/03/01 00:21:01;;;;;;;;;37.25;35.25;;;;;10.42;42.42;102265.06;4942090;28;45580;-70
2022/03/01 00:23:27;;;;;;;;;38.00;32.25;;;;;10.50;41.97;102275.69;4932100;28;46431;-70
2022/03/01 00:25:52;;;;;;;;;42.00;35.75;;;;;10.49;41.97;102274.81;4924547;28;45450;-70
2022/03/01 00:28:18;;;;;;;;;34.75;32.00;;;;;10.49;42.21;102272.13;4924670;28;45535;-70
2022/03/01 00:30:43;;;;;;;;;44.25;39.75;;;;;10.42;41.56;102256.16;4924462;28;45485;-70
2022/03/01 00:33:08;;;;;;;;;47.25;39.75;;;;;10.48;41.96;102262.34;4924556;28;45374;-70
2022/03/01 00:35:34;;;;;;;;;40.50;33.50;;;;;10.48;41.85;102261.47;4928378;28;45488;-70
2022/03/01 00:37:59;;;;;;;;;45.25;38.00;;;;;10.50;42.10;102262.34;4926679;28;45132;-70
2022/03/01 00:40:25;;;;;;;;;44.25;37.50;;;;;10.49;42.21;102256.13;4923031;28;45322;-70
2022/03/01 00:42:50;;;;;;;;;52.50;42.00;;;;;10.49;42.28;102257.88;4935174;28;46212;-70
2022/03/01 00:45:15;;;;;;;;;51.00;43.50;;;;;10.44;42.17;102252.59;4938721;28;45299;-70
2022/03/01 00:47:41;;;;;;;;;45.00;39.25;;;;;10.44;42.32;102257.03;4943176;28;45225;-70
2022/03/01 00:50:07;;;;;;;;;43.50;37.00;;;;;10.42;41.91;102257.03;4943422;28;45339;-70
2022/03/01 00:52:32;;;;;;;;;44.25;36.25;;;;;10.41;41.96;102268.63;4943537;28;46099;-70
2022/03/01 00:54:58;;;;;;;;;51.75;40.00;;;;;10.36;42.34;102266.00;4942972;28;45307;-70
2022/03/01 00:57:23;;;;;;;;;45.50;39.25;;;;;10.38;42.07;102269.53;4939214;28;45358;-70
2022/03/01 00:59:48;;;;;;;;;49.50;39.00;;;;;10.38;42.56;102274.88;4938655;28;45528;-70
2022/03/01 01:02:14;;;;;;;;;52.50;41.25;;;;;10.33;42.37;102259.78;4938276;28;46494;-70
2022/03/01 01:04:39;;;;;;;;;48.50;40.25;;;;;10.32;42.66;102271.34;4934986;28;45270;-70
2022/03/01 01:07:04;;;;;;;;;50.00;39.25;;;;;10.31;42.61;102278.47;4941097;28;45459;-70
2022/03/01 01:09:30;;;;;;;;;49.00;38.25;;;;;10.28;42.48;102269.59;4943245;28;45338;-70
2022/03/01 01:11:56;;;;;;;;;49.25;39.25;;;;;10.23;42.93;102264.28;4943208;28;45383;-70
2022/03/01 01:14:21;;;;;;;;;42.50;38.00;;;;;10.24;42.48;102259.81;4942937;28;45426;-70
2022/03/01 01:16:46;;;;;;;;;50.00;39.75;;;;;10.22;42.70;102261.63;4940138;28;45568;-70
2022/03/01 01:19:12;;;;;;;;;44.00;39.75;;;;;10.23;43.19;102258.06;4936755;28;45354;-70
2022/03/01 01:24:28;;;;;;;;;44.00;36.75;;;;;10.16;43.21;102247.41;4941916;28;45400;-70
2022/03/01 01:26:54;;;;;;;;;44.75;37.50;;;;;10.20;43.36;102253.63;4942953;28;45242;-70
2022/03/01 01:29:19;;;;;;;;;45.25;38.50;;;;;10.20;42.89;102250.94;4942950;28;45475;-70
2022/03/01 01:31:44;;;;;;;;;48.50;38.00;;;;;10.19;43.00;102251.88;4942718;28;46341;-70
2022/03/01 01:34:10;;;;;;;;;51.50;40.25;;;;;10.17;43.14;102250.97;4942756;28;45332;-70
2022/03/01 01:36:35;;;;;;;;;46.75;38.75;;;;;10.14;43.17;102250.97;4942720;28;45383;-70
2022/03/01 01:39:00;;;;;;;;;51.25;41.25;;;;;10.07;43.54;102246.59;4942696;28;45447;-70
2022/03/01 01:41:26;;;;;;;;;42.75;37.25;;;;;10.09;43.73;102250.13;4942657;28;46870;-70
2022/03/01 01:43:51;;;;;;;;;48.75;38.75;;;;;10.08;43.49;102248.38;4936077;28;45726;-70
2022/03/01 01:46:17;;;;;;;;;50.75;40.25;;;;;10.01;43.28;102232.38;4923276;28;45266;-70
2022/03/01 01:48:42;;;;;;;;;46.75;39.75;;;;;9.99;43.44;102233.31;4922674;28;45666;-70
2022/03/01 01:51:07;;;;;;;;;44.50;39.75;;;;;10.07;43.19;102246.59;4931823;28;48246;-70
2022/03/01 01:53:33;;;;;;;;;45.75;38.25;;;;;10.00;43.09;102237.72;4942724;28;45371;-70
2022/03/01 01:55:58;;;;;;;;;51.25;41.00;;;;;10.06;43.36;102244.84;4942818;28;45719;-70
2022/03/01 01:58:23;;;;;;;;;51.25;40.00;;;;;10.05;43.30;102257.25;4944562;28;45517;-70
2022/03/01 02:00:49;;;;;;;;;47.25;39.00;;;;;10.04;43.58;102254.59;4941805;28;46578;-70
2022/03/01 02:03:15;;;;;;;;;44.25;37.00;;;;;10.00;43.90;102253.75;4940186;28;45390;-70
2022/03/01 02:05:40;;;;;;;;;51.50;41.00;;;;;10.01;43.90;102266.19;4944487;28;45462;-70
2022/03/01 02:08:06;;;;;;;;;50.00;41.25;;;;;9.99;44.02;102260.88;4946464;28;45536;-70
2022/03/01 02:10:31;;;;;;;;;45.75;39.00;;;;;9.99;44.06;102258.19;4933392;28;46502;-70
2022/03/01 02:12:57;;;;;;;;;52.00;42.00;;;;;9.94;44.07;102245.75;4933439;28;45283;-70
2022/03/01 02:15:23;;;;;;;;;48.50;39.50;;;;;9.97;43.74;102253.75;4940509;28;45377;-70
2022/03/01 02:17:49;;;;;;;;;51.75;42.75;;;;;9.97;44.29;102262.66;4934375;28;45444;-70
2022/03/01 02:20:16;;;;;;;;;53.50;41.75;;;;;9.96;43.96;102254.66;4933901;28;47495;-70
2022/03/01 02:22:42;;;;;;;;;51.50;42.75;;;;;9.96;44.19;102250.22;4935438;28;45875;-70
2022/03/01 02:25:08;;;;;;;;;50.00;42.75;;;;;9.95;43.82;102247.53;4942026;28;45265;-70
2022/03/01 02:27:34;;;;;;;;;49.00;38.00;;;;;9.91;43.95;102246.69;4940006;28;45793;-70
2022/03/01 02:30:00;;;;;;;;;54.75;44.00;;;;;9.93;43.79;102252.00;4940207;28;46245;-70
2022/03/01 02:32:25;;;;;;;;;52.50;41.25;;;;;9.92;44.03;102244.88;4941861;28;45370;-70
2022/03/01 02:34:51;;;;;;;;;47.75;41.00;;;;;9.88;44.13;102241.34;4941943;28;45369;-70
2022/03/01 02:37:16;;;;;;;;;50.75;40.75;;;;;9.88;44.55;102246.69;4939780;28;45546;-70
2022/03/01 02:39:41;;;;;;;;;47.00;39.75;;;;;9.85;44.55;102243.16;4941901;28;46280;-70
2022/03/01 02:42:07;;;;;;;;;46.50;39.00;;;;;9.78;44.58;102234.31;4941730;28;45596;-70
2022/03/01 02:44:32;;;;;;;;;44.50;37.75;;;;;9.75;44.64;102240.53;4940270;28;45539;-70
2022/03/01 02:46:57;;;;;;;;;49.75;41.25;;;;;9.73;45.11;102247.66;4937614;28;45487;-70
2022/03/01 02:49:23;;;;;;;;;50.25;40.75;;;;;9.73;44.85;102246.78;4934897;28;46273;-70
2022/03/01 02:51:48;;;;;;;;;53.00;44.25;;;;;9.75;44.74;102244.97;4936008;28;45335;-70
2022/03/01 02:54:13;;;;;;;;;49.50;40.50;;;;;9.74;44.51;102244.09;4923002;28;45620;-70
2022/03/01 02:56:39;;;;;;;;;45.75;39.75;;;;;9.77;44.78;102245.84;4922276;28;45657;-70
2022/03/01 02:59:05;;;;;;;;;50.50;41.25;;;;;9.78;44.15;102252.97;4922680;28;45478;-70
2022/03/01 03:01:30;;;;;;;;;47.75;39.25;;;;;9.75;44.29;102245.84;4922509;28;45450;-70
2022/03/01 03:03:57;;;;;;;;;54.75;44.25;;;;;9.77;44.40;102264.53;4936044;28;45480;-70
2022/03/01 03:06:22;;;;;;;;;49.75;41.00;;;;;9.78;44.80;102259.19;4940513;28;45473;-70
2022/03/01 03:08:48;;;;;;;;;53.75;44.50;;;;;9.77;44.54;102262.75;4940066;28;46118;-70
2022/03/01 03:11:13;;;;;;;;;57.50;45.00;;;;;9.74;44.38;102259.19;4935607;28;45525;-71
2022/03/01 03:13:39;;;;;;;;;53.75;43.25;;;;;9.74;44.84;102259.19;4940327;28;45402;-70
2022/03/01 03:16:05;;;;;;;;;55.50;46.50;;;;;9.74;44.72;102257.44;4939109;28;45342;-70
2022/03/01 03:18:31;;;;;;;;;52.50;40.00;;;;;9.75;44.35;102258.31;4940535;28;46924;-70
2022/03/01 03:20:57;;;;;;;;;53.75;45.00;;;;;9.74;44.75;102252.09;4941622;28;45708;-70
2022/03/01 03:23:22;;;;;;;;;53.25;44.25;;;;;9.74;44.14;102253.88;4941012;28;45339;-70
2022/03/01 03:25:48;;;;;;;;;50.50;41.25;;;;;9.75;44.78;102258.31;4941297;28;45517;-70
2022/03/01 03:28:13;;;;;;;;;51.25;42.00;;;;;9.73;44.06;102254.78;4940119;28;45272;-70
2022/03/01 03:30:38;;;;;;;;;48.00;41.25;;;;;9.73;44.65;102250.31;4933870;28;45235;-70
2022/03/01 03:33:04;;;;;;;;;48.75;40.75;;;;;9.63;44.47;102229.94;4940927;28;45199;-70
2022/03/01 03:35:29;;;;;;;;;54.25;44.00;;;;;9.72;44.01;102250.31;4934480;28;45424;-70
2022/03/01 03:37:54;;;;;;;;;55.50;44.50;;;;;9.66;44.34;102242.38;4940926;28;46313;-70
2022/03/01 03:40:20;;;;;;;;;52.50;39.50;;;;;9.69;44.36;102250.34;4941223;28;45388;-70
2022/03/01 03:42:46;;;;;;;;;51.25;43.50;;;;;9.69;44.20;102250.34;4941084;28;45481;-70
2022/03/01 03:45:12;;;;;;;;;48.00;42.00;;;;;9.69;44.53;102253.00;4940745;28;45257;-70
2022/03/01 03:47:39;;;;;;;;;55.75;44.25;;;;;9.67;44.22;102244.13;4934380;28;46143;-70
2022/03/01 03:50:05;;;;;;;;;50.00;39.75;;;;;9.66;44.15;102242.38;4939724;28;45869;-70
2022/03/01 03:52:31;;;;;;;;;52.50;44.00;;;;;9.64;44.13;102237.06;4927675;28;45335;-70
2022/03/01 03:54:56;;;;;;;;;52.25;42.50;;;;;9.66;44.28;102237.91;4921560;28;45324;-70
2022/03/01 03:57:21;;;;;;;;;53.50;41.75;;;;;9.63;44.21;102236.13;4921751;28;45207;-70
2022/03/01 03:59:47;;;;;;;;;49.00;40.50;;;;;9.67;44.17;102247.69;4922045;28;45339;-70
2022/03/01 04:02:12;;;;;;;;;50.50;41.25;;;;;9.70;44.10;102252.13;4932223;28;45619;-70
2022/03/01 04:04:37;;;;;;;;;48.25;40.25;;;;;9.68;43.90;102251.25;4939257;28;45420;-70
2022/03/01 04:07:04;;;;;;;;;48.25;38.75;;;;;9.67;44.40;102247.69;4942100;28;45460;-70
2022/03/01 04:09:29;;;;;;;;;45.50;37.00;;;;;9.62;44.27;102237.06;4932183;28;45562;-70
2022/03/01 04:11:55;;;;;;;;;43.25;36.75;;;;;9.53;44.01;102215.75;4938820;28;45385;-70
2022/03/01 04:14:20;;;;;;;;;47.00;39.00;;;;;9.62;43.95;102236.16;4933838;28;45532;-70
2022/03/01 04:16:46;;;;;;;;;44.00;39.00;;;;;9.54;44.07;102220.19;4941539;28;45470;-70
2022/03/01 04:19:12;;;;;;;;;46.50;38.25;;;;;9.57;44.13;102227.28;4941693;28;45329;-70
2022/03/01 04:21:39;;;;;;;;;43.75;38.75;;;;;9.54;44.36;102219.28;4942009;28;45822;-70
2022/03/01 04:24:06;;;;;;;;;51.50;38.25;;;;;9.53;44.30;102218.41;4939980;28;45338;-70
2022/03/01 04:26:31;;;;;;;;;45.00;39.00;;;;;9.53;44.06;102217.53;4943530;28;45510;-70
2022/03/01 04:28:57;;;;;;;;;46.00;37.25;;;;;9.49;44.23;102214.00;4941173;28;45402;-70
2022/03/01 04:31:22;;;;;;;;;48.75;41.25;;;;;9.52;44.45;102227.34;4943768;28;45452;-70
2022/03/01 04:33:48;;;;;;;;;51.75;41.00;;;;;9.52;43.73;102227.34;4943549;28;45230;-70
2022/03/01 04:36:14;;;;;;;;;53.75;39.50;;;;;9.54;44.02;102236.19;4943529;28;46089;-70
2022/03/01 04:38:39;;;;;;;;;42.00;35.75;;;;;9.50;44.61;102233.53;4940336;28;45966;-70
2022/03/01 04:41:05;;;;;;;;;49.25;41.00;;;;;9.52;44.00;102240.66;4943263;28;45269;-70
2022/03/01 04:43:30;;;;;;;;;49.00;40.50;;;;;9.43;44.86;102222.91;4943583;28;45371;-70
2022/03/01 04:45:56;;;;;;;;;34.25;33.50;;;;;9.50;44.84;102228.22;4937013;28;45887;-70
2022/03/01 04:48:23;;;;;;;;;52.50;41.75;;;;;9.50;44.66;102229.09;4939080;28;45290;-70
2022/03/01 04:50:49;;;;;;;;;48.25;41.50;;;;;9.42;44.54;102221.16;4943494;28;45698;-70
2022/03/01 04:53:15;;;;;;;;;38.50;33.50;;;;;9.41;44.44;102226.47;4942655;28;45404;-70
2022/03/01 04:55:40;;;;;;;;;51.75;41.00;;;;;9.38;44.77;102235.34;4934155;28;45266;-70
2022/03/01 04:58:06;;;;;;;;;52.75;41.75;;;;;9.42;44.22;102253.13;4943171;28;45362;-70
2022/03/01 05:00:31;;;;;;;;;52.00;39.00;;;;;9.43;44.37;102238.00;4943282;28;45303;-70
2022/03/01 05:02:56;;;;;;;;;51.25;42.00;;;;;9.38;44.14;102235.34;4930653;28;45536;-70
2022/03/01 05:05:22;;;;;;;;;54.00;40.25;;;;;9.36;44.14;102223.81;4936314;28;45514;-70
2022/03/01 05:07:48;;;;;;;;;46.50;36.00;;;;;9.37;44.33;102224.69;4941794;28;45346;-70
2022/03/01 05:10:17;;;;;;;;;51.75;40.50;;;;;9.38;44.56;102234.47;4935670;28;45211;-70
2022/03/01 05:12:54;;;;;;;;;50.75;41.75;;;;;9.35;44.40;102221.16;4943005;28;45433;-70
2022/03/01 05:15:21;;;;;;;;;45.25;38.00;;;;;9.34;44.36;102219.38;4929669;28;46103;-70
2022/03/01 05:17:47;;;;;;;;;49.25;39.50;;;;;9.35;44.51;102213.16;4942305;28;45349;-70
2022/03/01 05:20:14;;;;;;;;;48.75;40.75;;;;;9.37;44.57;102222.03;4933333;28;45452;-70
2022/03/01 05:22:40;;;;;;;;;52.50;42.00;;;;;9.35;44.35;102218.50;4940238;28;45401;-70
2022/03/01 05:25:09;;;;;;;;;44.50;38.25;;;;;9.40;44.76;102222.03;4937003;28;46278;-70
2022/03/01 05:27:36;;;;;;;;;44.25;37.00;;;;;9.40;44.35;102219.38;4936683;28;45188;-70
2022/03/01 05:30:02;;;;;;;;;48.00;38.50;;;;;9.41;44.48;102214.03;4923497;28;45467;-70
2022/03/01 05:32:27;;;;;;;;;45.50;38.75;;;;;9.43;44.15;102220.22;4932028;28;45428;-70
2022/03/01 05:34:53;;;;;;;;;42.75;36.50;;;;;9.46;44.36;102222.00;4939531;28;45241;-70
2022/03/01 05:37:19;;;;;;;;;42.25;38.25;;;;;9.41;44.33;102208.69;4929955;28;45333;-70
2022/03/01 05:39:44;;;;;;;;;41.75;34.75;;;;;9.41;44.11;102218.47;4947646;28;45620;-70
2022/03/01 05:42:09;;;;;;;;;49.25;38.25;;;;;9.41;44.30;102216.69;4940747;28;45348;-70
2022/03/01 05:44:34;;;;;;;;;41.50;37.00;;;;;9.41;44.04;102227.34;4940755;28;47649;-70
2022/03/01 05:47:00;;;;;;;;;43.25;38.00;;;;;9.40;44.64;102222.91;4942311;28;45321;-70
2022/03/01 05:49:26;;;;;;;;;51.00;40.75;;;;;9.39;44.40;102221.16;4941511;28;45397;-70
2022/03/01 05:51:52;;;;;;;;;49.00;38.50;;;;;9.35;44.21;102211.38;4941201;28;45424;-70
2022/03/01 05:54:17;;;;;;;;;48.50;38.25;;;;;9.32;44.16;102215.84;4935952;28;45555;-70
2022/03/01 05:56:42;;;;;;;;;42.75;35.50;;;;;9.28;44.46;102207.84;4934874;28;45397;-70
2022/03/01 05:59:08;;;;;;;;;43.75;38.25;;;;;9.30;44.29;102215.84;4940188;28;45440;-70
2022/03/01 06:01:33;;;;;;;;;44.25;38.75;;;;;9.29;44.48;102214.09;4932487;28;45564;-70
2022/03/01 06:03:59;;;;;;;;;46.00;35.00;;;;;9.25;44.79;102206.97;4936730;28;46292;-70
2022/03/01 06:06:24;;;;;;;;;49.75;41.00;;;;;9.26;44.21;102217.63;4934398;28;45446;-70
2022/03/01 06:08:49;;;;;;;;;50.50;39.25;;;;;9.24;44.49;102211.44;4934660;28;45351;-70
2022/03/01 06:11:15;;;;;;;;;38.50;35.00;;;;;9.24;44.52;102214.09;4936026;28;45496;-70
2022/03/01 06:13:43;;;;;;;;;27.50;25.00;;;;;9.26;44.56;102214.97;4941724;28;46439;-70
2022/03/01 06:16:09;;;;;;;;;39.00;35.00;;;;;9.22;44.46;102213.22;4939581;28;45182;-71
2022/03/01 06:18:34;;;;;;;;;43.50;37.75;;;;;9.25;44.35;102221.22;4940282;28;45449;-71
2022/03/01 06:21:01;;;;;;;;;34.00;31.25;;;;;9.27;44.38;102218.50;4936408;28;45335;-70
2022/03/01 06:23:27;;;;;;;;;44.00;35.00;;;;;9.21;44.06;102216.75;4937670;28;46244;-70
2022/03/01 06:25:52;;;;;;;;;36.00;33.00;;;;;9.22;43.85;102222.97;4934191;28;45389;-70
2022/03/01 06:28:18;;;;;;;;;39.25;32.75;;;;;9.14;44.09;102216.78;4940786;28;45455;-70
2022/03/01 06:30:44;;;;;;;;;43.00;37.75;;;;;9.19;44.25;102218.56;4938357;28;45452;-70
2022/03/01 06:33:09;;;;;;;;;49.50;41.75;;;;;9.23;44.14;102220.31;4936067;28;45403;-70
2022/03/01 06:35:34;;;;;;;;;40.75;37.25;;;;;9.26;44.06;102230.97;4934585;28;45404;-70
2022/03/01 06:38:00;;;;;;;;;36.75;34.50;;;;;9.26;44.13;102235.41;4930174;28;45350;-70
2022/03/01 06:40:25;;;;;;;;;39.75;35.00;;;;;9.28;44.21;102239.81;4924238;28;45589;-70
2022/03/01 06:42:51;;;;;;;;;43.50;36.00;;;;;9.27;44.31;102234.50;4928263;28;45376;-71
2022/03/01 06:45:16;;;;;;;;;40.75;35.50;;;;;9.33;44.05;102245.16;4926430;28;45470;-70
2022/03/01 06:47:42;;;;;;;;;43.25;38.00;;;;;9.33;44.35;102241.59;4947775;28;46785;-71
2022/03/01 06:50:09;;;;;;;;;40.75;36.00;;;;;9.33;44.10;102241.59;4928806;28;45733;-70
2022/03/01 06:52:35;;;;;;;;;44.00;37.25;;;;;9.34;44.17;102248.69;4941992;28;45801;-69
2022/03/01 06:55:05;;;;;;;;;38.25;33.25;;;;;9.35;44.53;102253.13;4939080;28;45321;-70
2022/03/01 06:57:30;;;;;;;;;42.00;35.25;;;;;9.37;44.41;102256.69;4931989;28;45431;-70
2022/03/01 06:59:56;;;;;;;;;41.00;36.25;;;;;9.37;43.96;102259.34;4945437;28;45298;-70
2022/03/01 07:02:22;;;;;;;;;42.00;35.00;;;;;9.33;44.09;102257.59;4945179;28;46208;-71
2022/03/01 07:04:47;;;;;;;;;40.00;34.50;;;;;9.26;43.69;102246.94;4941350;28;45376;-72
2022/03/01 07:07:13;;;;;;;;;39.75;34.00;;;;;9.31;43.47;102254.06;4935329;28;45662;-71
2022/03/01 07:09:38;;;;;;;;;41.75;36.50;;;;;9.27;44.45;102256.72;4933338;28;45163;-69
2022/03/01 07:12:04;;;;;;;;;39.00;34.25;;;;;9.33;44.01;102266.47;4941404;28;45266;-69
2022/03/01 07:14:29;;;;;;;;;52.25;39.00;;;;;9.33;44.23;102270.91;4941277;28;45154;-69
2022/03/01 07:16:54;;;;;;;;;43.75;37.00;;;;;9.29;43.91;102264.72;4937070;28;45525;-69
2022/03/01 07:19:20;;;;;;;;;39.25;35.00;;;;;9.30;44.17;102273.59;4925142;28;45545;-69
2022/03/01 07:21:45;;;;;;;;;42.00;37.25;;;;;9.34;44.58;102280.66;4937247;28;45449;-69
2022/03/01 07:24:11;;;;;;;;;42.00;37.00;;;;;9.36;44.27;102276.25;4939693;28;45423;-69
2022/03/01 07:26:36;;;;;;;;;41.50;36.00;;;;;9.37;44.31;102272.66;4941020;28;45513;-69
2022/03/01 07:29:02;;;;;;;;;40.25;37.25;;;;;9.35;44.44;102278.00;4941060;28;45429;-69
2022/03/01 07:31:28;;;;;;;;;45.75;38.50;;;;;9.28;44.06;102253.16;4940992;28;46177;-69
2022/03/01 07:33:53;;;;;;;;;44.00;37.25;;;;;9.33;44.25;102262.94;4940581;28;45431;-70
2022/03/01 07:36:18;;;;;;;;;43.25;38.75;;;;;9.32;44.38;102272.72;4940286;28;45751;-70
2022/03/01 07:38:44;;;;;;;;;39.75;37.00;;;;;9.26;44.63;102265.59;4939840;28;45270;-69
2022/03/01 07:41:09;;;;;;;;;48.25;41.00;;;;;9.27;44.48;102267.38;4941093;28;45361;-69
2022/03/01 07:43:34;;;;;;;;;45.25;39.75;;;;;9.28;44.76;102274.47;4941042;28;45226;-69
2022/03/01 07:46:00;;;;;;;;;48.00;40.00;;;;;9.23;44.60;102254.94;4940776;28;45396;-69
2022/03/01 07:48:25;;;;;;;;;46.25;38.25;;;;;9.32;44.80;102267.38;4932051;28;45456;-70
2022/03/01 07:50:50;;;;;;;;;45.75;38.25;;;;;9.33;44.47;102273.59;4937123;28;45510;-69
2022/03/01 07:53:16;;;;;;;;;44.00;37.25;;;;;9.28;44.82;102261.16;4920530;28;45661;-70
2022/03/01 07:55:42;;;;;;;;;51.75;41.50;;;;;9.37;44.91;102262.00;4920383;28;45731;-69
2022/03/01 07:58:08;;;;;;;;;55.50;42.75;;;;;9.38;44.89;102266.47;4920946;28;45782;-69
2022/03/01 08:00:33;;;;;;;;;41.25;35.50;;;;;9.38;44.68;102270.00;4928176;28;46322;-69
2022/03/01 08:02:59;;;;;;;;;41.25;35.50;;;;;9.39;44.90;102265.59;4924827;28;45177;-69
2022/03/01 08:05:25;;;;;;;;;51.50;40.25;;;;;9.40;44.80;102265.53;4928438;28;45222;-70
2022/03/01 08:07:51;;;;;;;;;54.25;42.00;;;;;9.39;44.76;102257.59;4945704;28;45663;-69
2022/03/01 08:10:17;;;;;;;;;45.00;36.00;;;;;9.43;44.99;102272.66;4938768;28;46349;-69
2022/03/01 08:12:43;;;;;;;;;49.75;40.25;;;;;9.44;45.23;102277.13;4940633;28;45513;-69
2022/03/01 08:15:09;;;;;;;;;49.25;41.50;;;;;9.46;44.93;102278.88;4942392;28;45523;-69
2022/03/01 08:17:34;;;;;;;;;52.25;43.75;;;;;9.46;45.18;102267.31;4943558;28;45503;-69
2022/03/01 08:20:00;;;;;;;;;56.75;43.25;;;;;9.45;44.96;102270.88;4933549;28;45402;-70
2022/03/01 08:22:26;;;;;;;;;51.75;40.75;;;;;9.49;45.43;102272.66;4924629;28;45342;-70
2022/03/01 08:24:51;;;;;;;;;48.50;41.25;;;;;9.52;44.81;102279.72;4924564;28;45381;-69
2022/03/01 08:27:17;;;;;;;;;52.00;40.25;;;;;9.49;44.73;102269.06;4924258;28;45444;-69
2022/03/01 08:29:43;;;;;;;;;56.25;41.50;;;;;9.52;45.40;102264.66;4923912;28;45515;-69
2022/03/01 08:32:08;;;;;;;;;51.00;39.75;;;;;9.52;45.21;102269.97;4927117;28;46040;-69
2022/03/01 08:34:34;;;;;;;;;48.75;41.25;;;;;9.54;45.51;102265.53;4945562;28;45501;-69
2022/03/01 08:36:59;;;;;;;;;58.75;45.50;;;;;9.56;45.22;102271.72;4941997;28;45398;-69
2022/03/01 08:39:24;;;;;;;;;56.00;43.00;;;;;9.56;45.25;102260.19;4945778;28;45635;-69
2022/03/01 08:41:53;;;;;;;;;50.50;42.25;;;;;9.59;45.09;102268.19;4946502;28;45475;-69
2022/03/01 08:44:19;;;;;;;;;53.75;44.75;;;;;9.62;45.53;102269.06;4943268;28;45436;-69
2022/03/01 08:46:44;;;;;;;;;55.25;44.00;;;;;9.65;45.43;102262.81;4937231;28;45290;-69
2022/03/01 08:49:10;;;;;;;;;56.25;44.75;;;;;9.61;45.07;102261.94;4943175;28;46321;-69
2022/03/01 08:51:35;;;;;;;;;53.25;43.00;;;;;9.68;45.37;102272.59;4943428;28;45388;-69
2022/03/01 08:54:02;;;;;;;;;53.25;43.50;;;;;9.69;45.32;102264.56;4935548;28;45385;-69
2022/03/01 08:56:27;;;;;;;;;44.75;36.00;;;;;9.62;45.60;102254.81;4939435;28;45254;-69
2022/03/01 08:58:55;;;;;;;;;50.50;42.25;;;;;9.72;45.52;102282.31;4943320;28;45437;-69
2022/03/01 09:01:20;;;;;;;;;57.25;46.25;;;;;9.68;45.22;102278.78;4942918;28;45391;-69
2022/03/01 09:03:47;;;;;;;;;53.25;42.75;;;;;9.63;45.18;102278.81;4943466;28;45343;-69
2022/03/01 09:06:12;;;;;;;;;49.25;41.50;;;;;9.68;45.42;102291.25;4943181;28;45289;-69
2022/03/01 09:08:40;;;;;;;;;52.75;43.25;;;;;9.73;45.78;102289.44;4940538;28;46034;-69
2022/03/01 09:11:10;;;;;;;;;56.50;44.00;;;;;9.74;45.14;102294.78;4944797;28;45831;-69
2022/03/01 09:13:35;;;;;;;;;55.00;45.25;;;;;9.67;45.60;102277.00;4942114;28;45411;-69
2022/03/01 09:16:01;;;;;;;;;56.00;46.50;;;;;9.79;45.30;102295.63;4939029;28;45384;-69
2022/03/01 09:18:26;;;;;;;;;56.25;46.00;;;;;9.78;45.64;102279.66;4923927;28;45382;-69
2022/03/01 09:20:52;;;;;;;;;53.75;44.50;;;;;9.80;45.71;102285.84;4924005;28;45307;-69
2022/03/01 09:23:18;;;;;;;;;54.25;43.00;;;;;9.83;45.44;102289.38;4924238;28;45462;-69
2022/03/01 09:25:43;;;;;;;;;56.75;45.75;;;;;9.86;45.42;102293.84;4927790;28;45587;-69
2022/03/01 09:28:09;;;;;;;;;61.50;49.50;;;;;9.89;45.55;102287.56;4947914;28;46039;-69
2022/03/01 09:30:35;;;;;;;;;54.00;42.00;;;;;9.85;45.27;102288.50;4942027;28;45789;-69
2022/03/01 09:33:00;;;;;;;;;58.25;46.00;;;;;9.87;45.59;102282.25;4935286;28;45405;-69
2022/03/01 09:35:27;;;;;;;;;204.75;139.50;;;;;9.89;45.83;102277.81;4942730;28;45151;-69
2022/03/01 09:37:53;;;;;;;;;160.50;119.25;;;;;9.89;45.86;102274.25;4941277;28;46397;-69
2022/03/01 09:40:18;;;;;;;;;66.50;52.25;;;;;9.98;45.47;102282.22;4942719;28;45175;-69
2022/03/01 09:42:44;;;;;;;;;66.25;51.00;;;;;9.98;45.71;102276.88;4942944;28;45291;-70
2022/03/01 09:45:12;;;;;;;;;60.50;46.25;;;;;10.02;45.38;102275.94;4940174;28;45226;-69
2022/03/01 09:47:37;;;;;;;;;54.75;45.50;;;;;9.98;45.79;102264.41;4942483;28;46229;-69
2022/03/01 09:50:03;;;;;;;;;61.00;48.50;;;;;10.08;45.93;102269.72;4942542;28;45235;-69
2022/03/01 09:52:29;;;;;;;;;60.50;49.00;;;;;10.07;45.53;102263.47;4942848;28;45278;-69
2022/03/01 09:54:54;;;;;;;;;63.75;49.75;;;;;10.13;45.50;102258.09;4942251;28;45462;-69
2022/03/01 09:57:20;;;;;;;;;66.50;51.75;;;;;10.17;45.43;102259.88;4942322;28;45369;-69
2022/03/01 09:59:46;;;;;;;;;69.00;54.50;;;;;10.24;46.02;102266.06;4941285;28;45392;-69
2022/03/01 10:02:11;;;;;;;;;112.75;87.25;;;;;10.30;45.67;102276.66;4942484;28;45474;-69
2022/03/01 10:04:54;;;;;;;;;72.25;56.00;;;;;10.32;46.12;102277.59;4942301;28;45404;-69
2022/03/01 10:07:27;;;;;;;;;62.50;49.75;;;;;10.37;45.61;102283.78;4949071;28;45382;-69
2022/03/01 10:09:53;;;;;;;;;56.75;46.00;;;;;10.29;45.18;102269.59;4935982;28;45945;-69
2022/03/01 10:12:28;;;;;;;;;56.75;45.75;;;;;10.39;45.41;102281.13;4930577;28;45305;-69
2022/03/01 10:15:02;;;;;;;;;58.00;48.00;;;;;10.42;45.46;102280.19;4938583;28;45493;-69
2022/03/01 10:17:43;;;;;;;;;61.75;48.50;;;;;10.45;45.67;102285.50;4941779;28;46177;-70
2022/03/01 10:20:13;;;;;;;;;61.75;48.75;;;;;10.48;45.96;102285.50;4928347;28;45602;-69
2022/03/01 10:22:44;;;;;;;;;57.75;44.75;;;;;10.53;46.00;102294.34;4938868;28;45448;-69
2022/03/01 10:25:11;;;;;;;;;59.50;48.75;;;;;10.58;45.58;102292.53;4935817;28;45590;-69
2022/03/01 10:27:37;;;;;;;;;53.50;44.00;;;;;10.61;45.70;102287.19;4935985;28;46413;-69
2022/03/01 10:30:05;;;;;;;;;59.00;46.00;;;;;10.66;45.41;102285.34;4940960;28;45917;-69
2022/03/01 10:32:30;;;;;;;;;61.25;48.75;;;;;10.68;45.90;102283.56;4942080;28;45238;-70
2022/03/01 10:34:59;;;;;;;;;61.25;49.25;;;;;10.71;45.32;102275.50;4942096;28;45246;-70
2022/03/01 10:37:26;;;;;;;;;56.00;45.00;;;;;10.75;45.65;102271.03;4941528;28;46130;-69
2022/03/01 10:40:07;;;;;;;;;56.75;45.00;;;;;10.79;45.56;102258.53;4942164;28;45310;-69
2022/03/01 10:42:33;;;;;;;;;51.00;43.50;;;;;10.86;45.64;102250.47;4942289;28;45251;-69
2022/03/01 10:44:58;;;;;;;;;60.25;47.75;;;;;10.92;45.60;102250.38;4941697;28;45454;-69
2022/03/01 10:47:23;;;;;;;;;53.25;44.50;;;;;11.00;45.21;102249.44;4941560;28;45234;-69
2022/03/01 10:50:00;;;;;;;;;55.00;43.75;;;;;11.05;45.54;102253.81;4943499;28;45533;-69
2022/03/01 10:52:32;;;;;;;;;58.00;44.25;;;;;11.11;45.33;102253.75;4944942;28;45697;-69
2022/03/01 10:54:58;;;;;;;;;54.00;43.75;;;;;11.20;45.56;102262.59;4941279;28;45412;-69
2022/03/01 10:57:23;;;;;;;;;51.50;42.75;;;;;11.25;45.09;102252.72;4931380;28;46486;-69
2022/03/01 10:59:50;;;;;;;;;52.75;43.75;;;;;11.30;45.33;102246.41;4929613;28;45597;-69
2022/03/01 11:02:18;;;;;;;;;50.25;41.25;;;;;11.30;44.79;102237.53;4941422;28;45301;-69
2022/03/01 11:04:45;;;;;;;;;54.25;41.75;;;;;11.37;45.21;102244.56;4941150;28;45384;-69
2022/03/01 11:07:12;;;;;;;;;49.50;39.75;;;;;11.43;45.11;102241.81;4953479;28;46486;-69
2022/03/01 11:09:38;;;;;;;;;51.25;40.00;;;;;11.48;44.51;102231.97;4943185;28;45331;-69
2022/03/01 11:12:06;;;;;;;;;45.50;38.75;;;;;11.52;44.66;102232.81;4940134;28;45659;-69